Time;durP1;ratioP1;P1;durP2;ratioP2;P2;SDS_P1;SDS_P2;PMS_P1;PMS_P2;Temp;Humidity;BMP_temperature;BMP_pressure;BME280_temperature;BME280_humidity;BME280_pressure;Samples;Min_cycle;Max_cycle;Signal;HPM_P1;HPM_P2
2022/05/22 00:01:58;;;;;;;14.88;4.97;;;;;;;15.11;73.57;101857.16;5034788;28;20051;-43
2022/05/22 00:04:28;;;;;;;12.07;4.70;;;;;;;15.16;73.54;101848.09;5014205;28;20041;-42
2022/05/22 00:06:57;;;;;;;12.70;4.65;;;;;;;15.19;73.16;101833.00;5033877;28;20519;-45
2022/05/22 00:09:28;;;;;;;12.70;4.03;;;;;;;15.17;73.22;101840.69;5033473;28;20037;-46
2022/05/22 00:12:06;;;;;;;12.63;4.25;;;;;;;15.07;73.53;101825.84;5044681;28;20127;-45
2022/05/22 00:14:35;;;;;;;13.13;4.25;;;;;;;14.98;74.30;101826.66;5046990;28;20415;-47
2022/05/22 00:17:06;;;;;;;12.30;4.13;;;;;;;14.90;74.68;101823.34;5051651;28;20128;-49
2022/05/22 00:19:34;;;;;;;10.27;3.78;;;;;;;14.84;75.19;101810.75;5053525;28;20073;-44
2022/05/22 00:22:03;;;;;;;9.95;4.28;;;;;;;14.83;75.58;101809.09;5053487;28;20116;-42
2022/05/22 00:24:32;;;;;;;14.05;4.25;;;;;;;14.88;75.24;101811.00;5050529;28;20052;-44
2022/05/22 00:27:02;;;;;;;13.38;4.43;;;;;;;14.85;75.06;101817.88;5054554;28;20139;-43
2022/05/22 00:29:36;;;;;;;11.82;4.30;;;;;;;14.86;75.40;101803.06;5045439;28;20400;-46
2022/05/22 00:32:05;;;;;;;16.00;4.40;;;;;;;14.83;75.35;101797.28;5033174;28;20048;-47
2022/05/22 00:34:33;;;;;;;12.45;4.30;;;;;;;14.76;75.47;101805.78;5040985;28;20079;-43
2022/05/22 00:37:01;;;;;;;10.45;4.07;;;;;;;14.68;75.97;101811.81;5053092;28;20079;-43
2022/05/22 00:39:29;;;;;;;10.63;3.92;;;;;;;14.67;76.21;101802.78;5052973;28;20049;-43
2022/05/22 00:41:58;;;;;;;14.10;4.35;;;;;;;14.70;76.21;101804.13;5051326;28;20132;-44
2022/05/22 00:44:26;;;;;;;15.07;4.70;;;;;;;14.71;75.90;101803.03;5039860;28;20044;-44
2022/05/22 00:46:54;;;;;;;13.43;4.30;;;;;;;14.67;76.06;101811.00;5034406;28;20037;-47
2022/05/22 00:49:25;;;;;;;13.20;4.18;;;;;;;14.63;76.35;101801.66;5016763;28;20041;-43
2022/05/22 00:52:07;;;;;;;11.68;4.40;;;;;;;14.60;76.52;101802.19;5032952;28;20051;-44
2022/05/22 00:54:51;;;;;;;11.77;4.43;;;;;;;14.60;76.69;101804.94;5028638;28;20511;-46
2022/05/22 00:57:34;;;;;;;12.77;4.20;;;;;;;14.69;76.63;101810.72;5032321;28;20033;-46
2022/05/22 01:00:08;;;;;;;10.10;4.10;;;;;;;14.78;76.19;101794.53;5031712;28;20452;-48
2022/05/22 01:05:48;;;;;;;13.10;4.68;;;;;;;14.84;75.17;101780.56;5045874;28;20053;-48
2022/05/22 01:08:37;;;;;;;12.02;4.25;;;;;;;14.79;75.29;101780.56;5033359;28;20052;-47
2022/05/22 01:11:31;;;;;;;12.32;4.03;;;;;;;14.69;75.84;101770.38;5053430;28;20045;-48
2022/05/22 01:14:22;;;;;;;12.70;4.22;;;;;;;14.64;76.32;101775.03;5036258;28;20470;-46
2022/05/22 01:17:17;;;;;;;11.70;4.05;;;;;;;14.66;76.34;101787.38;5038461;28;20079;-46
2022/05/22 01:20:06;;;;;;;13.20;4.40;;;;;;;14.66;76.02;101792.06;5050783;28;20044;-48
2022/05/22 01:22:53;;;;;;;13.02;4.60;;;;;;;14.59;76.34;101788.75;5053114;28;20410;-47
2022/05/22 01:25:22;;;;;;;15.60;4.63;;;;;;;14.54;76.80;101803.28;5050677;28;20123;-46
2022/05/22 01:27:49;;;;;;;14.88;4.30;;;;;;;14.57;77.14;101799.16;5038261;28;20125;-45
2022/05/22 01:30:28;;;;;;;11.98;4.63;;;;;;;14.67;76.88;101788.19;5043661;28;20047;-46
2022/05/22 01:33:08;;;;;;;10.85;4.32;;;;;;;14.75;76.42;101790.44;5037427;28;20045;-46
2022/05/22 01:35:37;;;;;;;12.75;4.20;;;;;;;14.80;76.20;101784.13;5020824;28;20124;-43
2022/05/22 01:38:08;;;;;;;13.18;4.47;;;;;;;14.81;75.81;101777.53;5038358;28;20061;-43
2022/05/22 01:40:40;;;;;;;16.45;5.00;;;;;;;14.73;75.72;101776.16;5037140;28;20041;-47
2022/05/22 01:43:08;;;;;;;11.18;4.32;;;;;;;14.59;76.30;101766.81;5032533;28;20068;-43
2022/05/22 01:45:39;;;;;;;12.98;4.35;;;;;;;14.56;76.66;101781.88;5032981;28;20045;-44
2022/05/22 01:48:10;;;;;;;14.48;4.70;;;;;;;14.58;76.79;101767.91;5031567;28;20057;-48
2022/05/22 01:50:44;;;;;;;;;;;;;;;14.50;76.72;101771.97;5049235;28;20048;-46
2022/05/22 01:53:13;;;;;;;15.68;4.43;;;;;;;14.45;77.50;101763.72;5031750;28;19925;-43
2022/05/22 01:55:42;;;;;;;13.38;4.28;;;;;;;14.42;77.52;101759.59;5040844;28;20069;-43
2022/05/22 01:58:10;;;;;;;12.52;4.18;;;;;;;14.37;77.58;101762.34;5037484;28;20053;-41
2022/05/22 02:00:41;;;;;;;14.27;4.80;;;;;;;14.32;77.98;101765.06;5032665;28;20535;-42
2022/05/22 02:03:09;;;;;;;12.05;4.10;;;;;;;14.26;77.97;101763.41;4999037;28;20049;-42
2022/05/22 02:05:38;;;;;;;9.27;4.07;;;;;;;14.18;78.44;101769.41;5033872;28;20088;-41
2022/05/22 02:08:24;;;;;;;10.93;4.15;;;;;;;14.12;79.03;101768.59;5031975;28;20068;-43
2022/05/22 02:10:56;;;;;;;11.52;4.57;;;;;;;14.19;79.38;101766.41;5032691;28;20045;-45
2022/05/22 02:13:35;;;;;;;13.68;4.65;;;;;;;14.25;78.99;101759.03;5031722;28;20037;-45
2022/05/22 02:16:07;;;;;;;16.92;5.03;;;;;;;14.26;78.66;101757.91;5032679;28;20049;-46
2022/05/22 02:18:34;;;;;;;12.88;4.72;;;;;;;14.22;78.82;101754.09;5038046;28;20068;-47
2022/05/22 02:21:03;;;;;;;11.27;4.50;;;;;;;14.19;78.78;101749.13;5051457;28;20033;-43
2022/05/22 02:23:32;;;;;;;8.57;4.13;;;;;;;14.14;79.21;101746.38;5032790;28;20499;-47
2022/05/22 02:26:01;;;;;;;10.90;4.30;;;;;;;14.12;79.42;101743.06;5031442;28;20084;-46
2022/05/22 02:28:31;;;;;;;11.55;4.30;;;;;;;14.14;79.20;101743.63;5016337;28;20049;-44
2022/05/22 02:31:01;;;;;;;13.80;4.25;;;;;;;14.15;78.92;101739.81;5015462;28;20045;-46
2022/05/22 02:33:31;;;;;;;11.95;4.57;;;;;;;14.10;79.05;101737.06;5031540;28;20096;-46
2022/05/22 02:36:06;;;;;;;15.40;4.68;;;;;;;14.02;79.39;101733.75;5031877;28;20073;-45
2022/05/22 02:38:36;;;;;;;14.57;4.90;;;;;;;13.92;79.76;101733.69;5031713;28;20056;-49
2022/05/22 02:41:15;;;;;;;15.38;4.55;;;;;;;13.83;80.38;101724.38;5031467;28;20535;-46
2022/05/22 02:43:48;;;;;;;11.77;4.80;;;;;;;13.90;80.60;101735.88;5031120;28;20490;-46
2022/05/22 02:46:18;;;;;;;11.73;4.43;;;;;;;13.96;80.33;101726.59;5033230;28;20136;-45
2022/05/22 02:48:50;;;;;;;15.43;4.32;;;;;;;14.01;79.74;101717.56;5032014;28;20048;-43
2022/05/22 02:51:20;;;;;;;18.00;4.90;;;;;;;13.98;79.44;101710.72;5031681;28;20042;-47
2022/05/22 02:53:48;;;;;;;12.18;4.57;;;;;;;13.93;79.56;101705.22;5032202;28;20051;-42
2022/05/22 02:56:24;;;;;;;11.65;4.63;;;;;;;13.85;79.67;101714.78;5033469;28;20057;-45
2022/05/22 02:59:10;;;;;;;10.88;4.65;;;;;;;13.81;80.18;101715.59;5032297;28;20373;-46
2022/05/22 03:01:56;;;;;;;11.95;5.00;;;;;;;13.81;80.23;101726.53;5031218;28;20038;-45
2022/05/22 03:04:24;;;;;;;12.38;4.82;;;;;;;13.81;80.13;101732.84;5049645;28;20044;-46
2022/05/22 03:07:02;;;;;;;12.45;5.50;;;;;;;13.85;79.78;101727.63;5038067;28;20484;-46
2022/05/22 03:09:30;;;;;;;13.13;5.13;;;;;;;13.85;79.50;101730.38;5033215;28;20128;-48
2022/05/22 03:12:09;;;;;;;14.60;5.43;;;;;;;13.85;79.61;101728.47;5034984;28;20047;-49
2022/05/22 03:14:45;;;;;;;14.68;5.47;;;;;;;13.84;79.34;101726.00;5038905;28;20049;-45
2022/05/22 03:17:13;;;;;;;11.00;5.35;;;;;;;13.82;79.24;101725.44;5034760;28;20037;-48
2022/05/22 03:19:53;;;;;;;13.32;5.50;;;;;;;13.75;79.22;101719.38;5031799;28;20061;-43
2022/05/22 03:22:21;;;;;;;14.52;4.93;;;;;;;13.69;79.80;101713.06;5032304;28;20397;-44
2022/05/22 03:24:50;;;;;;;12.50;4.78;;;;;;;13.71;79.82;101710.88;5037120;28;20045;-46
2022/05/22 03:27:19;;;;;;;12.38;4.35;;;;;;;13.72;79.83;101714.44;5049269;28;20041;-46
2022/05/22 03:29:51;;;;;;;12.48;4.80;;;;;;;13.73;79.57;101707.88;5034593;28;20065;-45
2022/05/22 03:32:19;;;;;;;11.07;4.85;;;;;;;13.70;79.66;101702.94;5034503;28;20037;-45
2022/05/22 03:34:53;;;;;;;14.07;4.45;;;;;;;13.67;79.69;101701.56;5020070;28;20036;-47
2022/05/22 03:37:24;;;;;;;11.80;4.78;;;;;;;13.67;79.96;101701.56;5035005;28;20057;-47
2022/05/22 03:39:53;;;;;;;10.63;4.35;;;;;;;13.68;79.43;101707.84;5019257;28;20049;-45
2022/05/22 03:42:21;;;;;;;13.75;5.55;;;;;;;13.67;79.45;101698.81;5051618;28;20041;-46
2022/05/22 03:44:49;;;;;;;11.35;4.90;;;;;;;13.59;79.59;101693.84;5052533;28;20490;-44
2022/05/22 03:47:16;;;;;;;14.07;5.55;;;;;;;13.49;80.23;101694.59;5039119;28;20037;-46
2022/05/22 03:50:04;;;;;;;;;;;;;;;13.47;80.92;101699.53;5051184;28;20045;-46
2022/05/22 03:52:35;;;;;;;11.60;5.10;;;;;;;13.40;80.73;101693.50;5034095;28;19967;-46
2022/05/22 03:55:07;;;;;;;13.52;5.30;;;;;;;13.31;81.46;101686.84;5053069;28;20055;-46
2022/05/22 03:57:35;;;;;;;10.73;4.82;;;;;;;13.21;81.96;101674.72;5035267;28;20045;-46
2022/05/22 04:00:09;;;;;;;12.38;4.80;;;;;;;13.17;82.59;101684.53;5033920;28;20132;-45
2022/05/22 04:02:43;;;;;;;17.30;5.22;;;;;;;13.17;82.79;101684.53;5032930;28;20037;-45
2022/05/22 04:05:14;;;;;;;11.57;4.78;;;;;;;13.27;82.58;101686.56;5019098;28;20401;-46
2022/05/22 04:07:44;;;;;;;15.77;5.07;;;;;;;13.37;82.44;101694.00;5032993;28;20033;-45
2022/05/22 04:10:16;;;;;;;14.25;4.60;;;;;;;13.48;82.43;101695.72;5037608;28;20084;-45
2022/05/22 04:12:44;;;;;;;14.57;5.38;;;;;;;13.53;81.80;101695.72;5033796;28;20558;-46
2022/05/22 04:15:19;;;;;;;13.60;4.82;;;;;;;13.54;81.64;101699.28;5016971;28;20470;-45
2022/05/22 04:17:50;;;;;;;23.02;5.63;;;;;;;13.45;82.23;101695.44;5029499;28;20107;-47
2022/05/22 04:20:20;;;;;;;14.93;5.05;;;;;;;13.37;82.24;101689.38;5051594;28;20039;-46
2022/05/22 04:25:36;;;;;;;13.38;5.63;;;;;;;13.37;82.52;101683.03;5053572;28;20068;-47
2022/05/22 04:28:04;;;;;;;13.82;5.18;;;;;;;13.32;83.00;101685.75;5047524;28;20068;-48
2022/05/22 04:30:32;;;;;;;16.55;5.35;;;;;;;13.31;83.25;101684.13;5033511;28;20041;-45
2022/05/22 04:33:06;;;;;;;15.73;5.88;;;;;;;13.32;83.29;101672.88;5051699;28;20037;-46
2022/05/22 04:35:35;;;;;;;15.32;5.47;;;;;;;13.35;83.43;101680.59;5019126;28;20038;-46
2022/05/22 04:38:04;;;;;;;14.52;5.60;;;;;;;13.40;83.38;101682.53;5034030;28;20042;-46
2022/05/22 04:40:33;;;;;;;13.15;4.75;;;;;;;13.46;83.21;101684.19;5033496;28;20091;-46
2022/05/22 04:43:01;;;;;;;11.32;4.90;;;;;;;13.55;82.62;101679.03;5033166;28;20041;-50
2022/05/22 04:45:32;;;;;;;14.65;5.10;;;;;;;13.58;82.26;101683.97;5018380;28;20053;-47
2022/05/22 04:48:06;;;;;;;15.73;5.05;;;;;;;13.49;82.33;101686.38;5018620;28;20132;-46
2022/05/22 04:50:56;;;;;;;13.90;5.22;;;;;;;13.38;83.20;101684.72;5034351;28;20041;-50
2022/05/22 04:53:26;;;;;;;13.93;4.82;;;;;;;13.32;83.33;101685.75;5034098;28;20053;-51
2022/05/22 04:56:32;;;;;;;12.65;4.55;;;;;;;13.39;83.55;101686.34;5033201;28;20064;-46
2022/05/22 04:59:09;;;;;;;10.68;4.93;;;;;;;13.50;83.10;101677.09;5037412;28;20049;-45
2022/05/22 05:01:37;;;;;;;13.15;5.38;;;;;;;13.52;82.43;101679.59;5052612;28;20045;-43
2022/05/22 05:04:08;;;;;;;14.68;4.93;;;;;;;13.50;82.29;101674.38;5052073;28;20411;-47
2022/05/22 05:07:09;;;;;;;14.55;5.57;;;;;;;13.45;82.98;101674.34;5046931;28;20038;-44
2022/05/22 05:09:59;;;;;;;13.07;4.93;;;;;;;13.45;83.11;101662.56;5042854;28;20045;-45
2022/05/22 05:12:45;;;;;;;12.25;4.95;;;;;;;13.44;82.38;101664.47;5042978;28;20045;-47
2022/05/22 05:15:26;;;;;;;13.38;4.80;;;;;;;13.43;82.18;101674.59;5052473;28;20068;-48
2022/05/22 05:18:02;;;;;;;11.93;5.20;;;;;;;13.47;82.41;101668.59;5051222;28;20060;-46
2022/05/22 05:20:32;;;;;;;11.77;4.40;;;;;;;13.50;82.10;101665.34;5051404;28;20067;-46
2022/05/22 05:23:04;;;;;;;11.65;5.30;;;;;;;13.52;82.22;101669.44;5033669;28;20522;-47
2022/05/22 05:25:41;;;;;;;21.38;5.93;;;;;;;13.60;82.24;101666.19;5035492;28;20037;-48
2022/05/22 05:28:09;;;;;;;12.93;5.05;;;;;;;13.63;81.35;101678.53;5015936;28;20503;-48
2022/05/22 05:30:37;;;;;;;13.20;5.40;;;;;;;13.65;81.65;101673.59;5032064;28;20048;-46
2022/05/22 05:33:06;;;;;;;13.48;5.05;;;;;;;13.67;81.58;101681.56;5031977;28;20124;-47
2022/05/22 05:36:12;;;;;;;17.90;5.10;;;;;;;13.71;81.18;101677.19;5032212;28;20045;-47
2022/05/22 05:38:58;;;;;;;15.02;5.40;;;;;;;13.69;80.91;101680.19;5042191;28;20064;-49
2022/05/22 05:41:39;;;;;;;15.18;5.50;;;;;;;13.64;81.32;101686.47;5031889;28;20061;-48
2022/05/22 05:44:07;;;;;;;17.15;5.53;;;;;;;13.63;81.74;101686.72;5044895;28;20041;-46
2022/05/22 05:46:46;;;;;;;16.30;5.65;;;;;;;13.63;81.60;101679.34;5031120;28;20108;-49
2022/05/22 05:49:14;;;;;;;11.85;5.30;;;;;;;13.67;82.00;101676.91;5043946;28;20083;-45
2022/05/22 05:51:45;;;;;;;14.63;5.70;;;;;;;13.73;81.60;101680.47;5032841;28;20084;-46
2022/05/22 05:54:16;;;;;;;13.50;5.65;;;;;;;13.80;81.58;101687.34;5032919;28;20048;-47
2022/05/22 05:57:03;;;;;;;12.00;5.43;;;;;;;13.86;81.67;101682.72;5033567;28;20037;-45
2022/05/22 05:59:43;;;;;;;17.08;5.53;;;;;;;13.92;81.52;101673.41;5032602;28;20103;-43
2022/05/22 06:02:16;;;;;;;13.68;5.28;;;;;;;13.96;81.30;101679.19;5029701;28;20034;-46
2022/05/22 06:04:46;;;;;;;15.90;5.57;;;;;;;14.00;81.26;101681.13;5041280;28;20468;-47
2022/05/22 06:07:14;;;;;;;12.82;5.40;;;;;;;14.01;81.22;101688.25;5046437;28;20033;-45
2022/05/22 06:09:42;;;;;;;15.55;5.53;;;;;;;14.01;81.75;101681.94;5050261;28;20087;-47
2022/05/22 06:12:33;;;;;;;17.08;5.97;;;;;;;14.00;82.05;101681.13;5038762;28;20126;-42
2022/05/22 06:15:06;;;;;;;12.98;5.18;;;;;;;14.01;81.92;101677.28;5031176;28;20041;-47
2022/05/22 06:17:38;;;;;;;12.73;5.88;;;;;;;14.05;81.48;101678.41;5036890;28;20117;-44
2022/05/22 06:20:10;;;;;;;15.38;5.50;;;;;;;14.11;81.18;101681.16;5016285;28;20500;-46
2022/05/22 06:22:45;;;;;;;13.95;5.18;;;;;;;14.18;81.15;101676.22;5006288;28;20045;-45
2022/05/22 06:25:31;;;;;;;10.55;4.75;;;;;;;14.26;80.62;101675.69;5034319;28;20121;-46
2022/05/22 06:28:19;;;;;;;12.70;5.35;;;;;;;14.34;80.42;101677.91;5031940;28;20057;-46
2022/05/22 06:30:59;;;;;;;12.93;4.95;;;;;;;14.40;80.25;101684.22;5040351;28;20045;-47
2022/05/22 06:33:40;;;;;;;15.15;5.13;;;;;;;14.42;79.84;101676.53;5030464;28;20046;-46
2022/05/22 06:36:28;;;;;;;11.05;4.78;;;;;;;14.46;79.70;101675.72;5030409;28;20049;-47
2022/05/22 06:41:54;;;;;;;13.82;5.82;;;;;;;14.54;77.67;101679.03;5047338;28;20503;-47
2022/05/22 06:44:44;;;;;;;10.52;4.32;;;;;;;14.58;78.21;101686.47;5036073;28;20037;-46
2022/05/22 06:47:38;;;;;;;12.35;4.95;;;;;;;14.61;78.03;101691.38;5034543;28;20488;-47
2022/05/22 06:50:24;;;;;;;14.18;5.60;;;;;;;14.65;78.23;101683.44;5016117;28;20045;-52
2022/05/22 06:53:06;;;;;;;15.98;5.72;;;;;;;14.62;77.88;101693.03;5032170;28;20504;-53
2022/05/22 06:55:52;;;;;;;12.77;4.75;;;;;;;14.66;77.81;101696.06;5049651;28;20037;-46
2022/05/22 06:58:40;;;;;;;15.82;6.10;;;;;;;14.68;77.63;101685.63;5055862;28;20053;-53
2022/05/22 07:01:17;;;;;;;16.92;5.40;;;;;;;14.69;77.16;101698.22;5055302;28;20057;-50
2022/05/22 07:04:05;;;;;;;16.52;5.88;;;;;;;14.71;77.54;101687.81;5032672;28;20041;-45
2022/05/22 07:06:39;;;;;;;13.35;5.53;;;;;;;14.77;77.40;101684.00;5045955;28;20034;-50
2022/05/22 07:09:16;;;;;;;14.50;5.50;;;;;;;14.82;77.42;101688.66;5044639;28;20041;-47
2022/05/22 07:11:49;;;;;;;15.23;5.97;;;;;;;14.85;77.16;101685.34;5054383;28;20087;-49
2022/05/22 07:14:42;;;;;;;14.48;5.43;;;;;;;14.93;77.05;101682.03;5039864;28;20066;-52
2022/05/22 07:17:27;;;;;;;13.88;5.90;;;;;;;14.97;76.65;101685.88;5051455;28;20052;-49
2022/05/22 07:20:04;;;;;;;18.63;6.70;;;;;;;14.98;76.47;101690.25;5052840;28;20056;-50
2022/05/22 07:22:50;;;;;;;16.20;5.82;;;;;;;15.03;76.69;101686.69;5041444;28;20041;-49
2022/05/22 07:25:40;;;;;;;15.07;6.05;;;;;;;15.07;76.58;101685.03;5042730;28;20046;-50
2022/05/22 07:28:29;;;;;;;13.43;6.70;;;;;;;15.09;76.70;101680.09;5024303;28;20045;-48
2022/05/22 07:31:23;;;;;;;16.88;5.78;;;;;;;15.14;76.63;101682.84;5034142;28;20037;-48
2022/05/22 07:34:10;;;;;;;25.38;7.97;;;;;;;15.15;76.15;101684.47;5039828;28;20096;-47
2022/05/22 07:37:09;;;;;;;20.75;7.30;;;;;;;15.20;75.52;101675.41;5024908;28;20057;-44
2022/05/22 07:39:59;;;;;;;18.88;6.72;;;;;;;15.22;75.88;101665.78;5033453;28;20041;-45
2022/05/22 07:42:56;;;;;;;13.10;5.75;;;;;;;15.27;75.67;101665.78;5026693;28;20053;-45
2022/05/22 07:45:44;;;;;;;17.70;6.90;;;;;;;15.29;75.46;101663.56;5016236;28;20050;-49
2022/05/22 07:48:32;;;;;;;15.48;5.65;;;;;;;15.32;74.41;101674.00;5034847;28;20131;-47
2022/05/22 07:51:35;;;;;;;16.00;6.05;;;;;;;15.36;73.86;101673.44;5035910;28;20514;-48
2022/05/22 07:54:41;;;;;;;19.40;6.38;;;;;;;15.37;73.38;101664.94;5052059;28;20043;-47
2022/05/22 07:57:38;;;;;;;20.10;6.25;;;;;;;15.42;73.62;101669.59;5054707;28;20059;-48
2022/05/22 08:00:25;;;;;;;14.25;5.68;;;;;;;15.48;73.49;101665.72;5054487;28;20449;-48
2022/05/22 08:03:07;;;;;;;15.25;6.53;;;;;;;15.54;73.41;101664.59;5032714;28;20484;-47
2022/05/22 08:05:44;;;;;;;13.75;5.97;;;;;;;15.57;73.18;101658.53;5050923;28;20044;-47
2022/05/22 08:08:12;;;;;;;15.35;5.88;;;;;;;15.59;72.40;101661.84;5052609;28;20037;-48
2022/05/22 08:10:50;;;;;;;18.55;6.25;;;;;;;15.60;71.73;101652.47;5053518;28;20045;-46
2022/05/22 08:13:25;;;;;;;17.02;6.15;;;;;;;15.65;71.63;101648.88;5019966;28;20043;-47
2022/05/22 08:15:53;;;;;;;12.95;3.88;;;;;;;15.69;68.62;101650.78;5035516;28;20124;-47
2022/05/22 08:18:28;;;;;;;13.95;4.63;;;;;;;15.69;66.59;101649.97;5043774;28;20114;-46
2022/05/22 08:20:57;;;;;;;17.33;5.15;;;;;;;15.70;67.14;101646.97;5053800;28;20136;-46
2022/05/22 08:23:27;;;;;;;12.30;4.88;;;;;;;15.72;67.39;101633.75;5047358;28;20480;-46
2022/05/22 08:26:05;;;;;;;14.07;4.68;;;;;;;15.82;67.51;101632.88;5050900;28;20048;-46
2022/05/22 08:28:36;;;;;;;15.57;5.40;;;;;;;15.86;66.61;101627.66;5053364;28;20455;-47
2022/05/22 08:31:06;;;;;;;15.55;4.50;;;;;;;15.88;67.29;101623.53;5053232;28;20427;-48
2022/05/22 08:33:34;;;;;;;15.52;5.35;;;;;;;15.91;67.67;101622.94;5049777;28;20055;-45
2022/05/22 08:36:04;;;;;;;16.95;5.30;;;;;;;15.97;68.09;101610.81;5053945;28;20041;-49
2022/05/22 08:38:39;;;;;;;13.85;5.55;;;;;;;15.98;67.91;101617.94;5036148;28;20045;-48
2022/05/22 08:41:21;;;;;;;15.65;6.00;;;;;;;15.97;67.96;101610.81;5054511;28;20041;-51
2022/05/22 08:43:56;;;;;;;14.20;5.35;;;;;;;15.99;67.33;101607.78;5051232;28;20045;-46
2022/05/22 08:46:34;;;;;;;11.35;5.13;;;;;;;16.02;66.54;101604.47;5053755;28;20096;-49
2022/05/22 08:49:16;;;;;;;14.13;4.97;;;;;;;16.10;66.76;101605.78;5054272;28;20037;-48
2022/05/22 08:51:52;;;;;;;13.77;5.22;;;;;;;16.11;66.66;101596.41;5054313;28;20065;-47
2022/05/22 08:54:26;;;;;;;14.68;5.38;;;;;;;16.17;68.81;101601.59;5035109;28;20041;-48
2022/05/22 08:59:47;;;;;;;11.80;5.63;;;;;;;16.16;65.49;101575.22;5043269;28;20057;-47
2022/05/22 09:02:25;;;;;;;15.95;5.25;;;;;;;16.22;64.89;101575.19;5052716;28;20048;-47
2022/05/22 09:05:08;;;;;;;16.77;5.45;;;;;;;16.26;64.35;101576.22;5035363;28;20041;-46
2022/05/22 09:07:53;;;;;;;13.70;5.22;;;;;;;16.28;64.22;101574.00;5034016;28;20037;-48
2022/05/22 09:10:37;;;;;;;16.60;6.00;;;;;;;16.30;64.59;101566.31;5016426;28;20128;-48
2022/05/22 09:13:10;;;;;;;15.63;5.50;;;;;;;16.38;63.76;101562.94;5044057;28;20072;-46
2022/05/22 09:16:04;;;;;;;15.95;5.75;;;;;;;16.48;63.03;101560.09;5039123;28;20053;-47
2022/05/22 09:18:54;;;;;;;15.02;5.50;;;;;;;16.53;63.29;101554.53;5054720;28;20099;-50
2022/05/22 09:21:22;;;;;;;13.15;5.00;;;;;;;16.57;63.62;101555.59;5053408;28;20573;-47
2022/05/22 09:23:57;;;;;;;15.10;6.07;;;;;;;16.60;62.65;101560.53;5042937;28;20046;-46
2022/05/22 09:26:57;;;;;;;15.13;6.33;;;;;;;16.58;63.09;101554.47;5053146;28;20124;-46
2022/05/22 09:29:38;;;;;;;15.27;6.50;;;;;;;16.59;63.56;101558.84;5052346;28;20045;-47
2022/05/22 09:32:25;;;;;;;16.98;6.82;;;;;;;16.64;63.76;101557.19;5047716;28;20049;-45
2022/05/22 09:35:15;;;;;;;18.52;7.00;;;;;;;16.73;64.48;101552.69;5033591;28;20496;-48
2022/05/22 09:37:46;;;;;;;16.05;6.97;;;;;;;16.80;63.68;101550.44;5032225;28;20043;-47
2022/05/22 09:40:23;;;;;;;16.90;6.88;;;;;;;16.78;62.68;101544.38;5033471;28;20053;-45
2022/05/22 09:43:01;;;;;;;19.27;6.97;;;;;;;16.75;63.18;101545.78;5037953;28;20041;-48
2022/05/22 09:45:54;;;;;;;16.23;6.70;;;;;;;16.73;62.84;101541.69;5051912;28;20045;-47
2022/05/22 09:48:43;;;;;;;15.63;6.85;;;;;;;16.69;62.81;101543.34;5052983;28;20049;-48
2022/05/22 09:51:38;;;;;;;14.00;6.32;;;;;;;16.72;62.65;101551.06;5053042;28;20120;-48
2022/05/22 09:54:29;;;;;;;15.13;6.25;;;;;;;16.75;62.30;101539.47;5029926;28;20492;-46
2022/05/22 09:57:34;;;;;;;15.45;6.25;;;;;;;16.82;62.77;101545.47;5033156;28;20041;-48
2022/05/22 10:00:13;;;;;;;17.23;6.43;;;;;;;16.87;62.36;101545.41;5032958;28;20046;-50
2022/05/22 10:03:02;;;;;;;16.08;7.05;;;;;;;16.88;62.51;101532.44;5038497;28;20116;-48
2022/05/22 10:05:32;;;;;;;16.40;7.40;;;;;;;16.87;61.18;101531.63;5053027;28;20059;-47
2022/05/22 10:08:21;;;;;;;15.13;6.75;;;;;;;16.86;60.29;101530.00;5052801;28;20051;-47
2022/05/22 10:11:19;;;;;;;17.48;7.13;;;;;;;16.83;60.11;101541.59;5053051;28;20045;-49
2022/05/22 10:14:06;;;;;;;17.50;6.40;;;;;;;16.82;59.50;101546.28;5037778;28;20516;-48
2022/05/22 10:16:56;;;;;;;18.52;7.15;;;;;;;16.80;59.66;101545.75;5033124;28;20459;-48
2022/05/22 10:19:35;;;;;;;16.77;7.68;;;;;;;16.82;60.50;101528.94;5032967;28;20475;-47
2022/05/22 10:22:49;;;;;;;13.32;6.07;;;;;;;16.81;60.56;101519.88;5034239;28;20034;-48
2022/05/22 10:25:38;;;;;;;13.70;6.07;;;;;;;16.85;60.53;101528.34;5051671;28;20492;-52
2022/05/22 10:28:16;;;;;;;15.23;6.35;;;;;;;16.92;61.10;101523.31;5052738;28;20044;-45
2022/05/22 10:31:03;;;;;;;15.68;5.70;;;;;;;17.08;61.35;101525.88;5047408;28;20049;-50
2022/05/22 10:33:38;;;;;;;13.30;5.68;;;;;;;17.19;60.14;101519.13;5057412;28;20083;-51
2022/05/22 10:36:08;;;;;;;13.55;5.97;;;;;;;17.30;59.76;101512.38;5057871;28;20047;-52
2022/05/22 10:38:38;;;;;;;15.02;5.43;;;;;;;17.41;58.40;101508.38;5059349;28;20036;-50
2022/05/22 10:44:15;;;;;;;18.20;5.38;;;;;;;17.54;56.45;101503.22;5043469;28;20046;-51
2022/05/22 10:46:49;;;;;;;14.10;6.85;;;;;;;17.59;56.02;101492.94;5041258;28;20050;-52
2022/05/22 10:49:18;;;;;;;13.57;5.82;;;;;;;17.63;55.61;101504.16;5037559;28;20111;-50
2022/05/22 10:52:01;;;;;;;15.65;6.18;;;;;;;17.69;54.55;101494.72;5047186;28;20049;-50
2022/05/22 10:54:32;;;;;;;14.98;6.15;;;;;;;17.64;55.14;101481.03;5056591;28;20086;-46
2022/05/22 10:57:12;;;;;;;17.33;5.88;;;;;;;17.60;55.58;101482.72;5055346;28;20411;-50
2022/05/22 10:59:40;;;;;;;13.90;6.25;;;;;;;17.61;56.03;101478.88;5046715;28;20111;-47
2022/05/22 11:02:18;;;;;;;11.90;5.57;;;;;;;17.64;55.61;101473.56;5035391;28;20049;-48
2022/05/22 11:04:49;;;;;;;14.25;5.80;;;;;;;17.68;54.98;101462.78;5036547;28;20050;-47
2022/05/22 11:07:51;;;;;;;15.30;5.85;;;;;;;17.72;54.43;101465.72;5035300;28;20041;-49
2022/05/22 11:10:25;;;;;;;15.40;6.63;;;;;;;17.70;55.93;101462.47;5037013;28;20051;-48
2022/05/22 11:13:10;;;;;;;14.95;6.25;;;;;;;17.65;55.67;101452.31;5055596;28;20040;-49
2022/05/22 11:15:42;;;;;;;16.77;6.38;;;;;;;17.63;56.61;101449.06;5056295;28;20102;-48
2022/05/22 11:18:24;;;;;;;11.82;5.75;;;;;;;17.70;56.79;101452.25;5055849;28;20159;-48
2022/05/22 11:21:03;;;;;;;14.88;6.32;;;;;;;17.77;56.17;101447.16;5034415;28;20041;-48
2022/05/22 11:23:36;;;;;;;16.05;5.63;;;;;;;17.83;55.91;101448.75;5039113;28;20518;-49
2022/05/22 11:26:21;;;;;;;14.50;5.53;;;;;;;17.92;55.97;101450.81;5038636;28;20049;-45
2022/05/22 11:28:59;;;;;;;20.08;7.25;;;;;;;18.00;55.94;101447.38;5053717;28;20127;-47
2022/05/22 11:31:33;;;;;;;13.60;5.68;;;;;;;18.06;55.59;101446.16;5054110;28;20048;-48
2022/05/22 11:34:23;;;;;;;12.05;4.75;;;;;;;18.11;58.87;101443.28;5052436;28;20067;-47
2022/05/22 11:37:27;;;;;;;12.18;5.90;;;;;;;18.05;57.01;101439.00;5054571;28;20045;-45
2022/05/22 11:40:19;;;;;;;11.95;5.60;;;;;;;17.97;56.41;101425.94;5043444;28;20045;-47
2022/05/22 11:42:47;;;;;;;13.60;5.82;;;;;;;17.95;55.39;101428.16;5033802;28;20403;-48
2022/05/22 11:45:25;;;;;;;15.98;5.85;;;;;;;18.02;54.95;101423.09;5033691;28;20124;-49
2022/05/22 11:48:08;;;;;;;21.60;5.03;;;;;;;18.10;54.95;101419.59;5043124;28;20128;-49
2022/05/22 11:50:58;;;;;;;11.25;5.32;;;;;;;18.21;54.41;101411.97;5052644;28;20071;-48
2022/05/22 11:53:56;;;;;;;14.15;5.75;;;;;;;18.28;54.75;101407.69;5041108;28;20049;-46
2022/05/22 11:56:57;;;;;;;11.43;4.40;;;;;;;18.34;56.54;101404.81;5035670;28;20403;-47
2022/05/22 12:00:22;;;;;;;12.77;5.03;;;;;;;18.45;58.75;101395.22;5041246;28;20080;-47
2022/05/22 12:03:08;;;;;;;12.20;5.40;;;;;;;18.52;56.59;101390.94;5032173;28;20053;-47
2022/05/22 12:05:57;;;;;;;13.13;6.43;;;;;;;18.57;56.17;101387.25;5034426;28;20052;-50
2022/05/22 12:08:37;;;;;;;12.52;5.47;;;;;;;18.62;56.85;101386.31;5034979;28;20073;-48
2022/05/22 12:11:21;;;;;;;25.70;6.40;;;;;;;18.64;55.84;101389.56;5035078;28;20053;-47
2022/05/22 12:13:58;;;;;;;14.55;6.03;;;;;;;18.64;54.24;101387.66;5034911;28;20121;-45
2022/05/22 12:16:32;;;;;;;13.02;5.85;;;;;;;18.64;52.97;101373.00;5048530;28;20048;-46
2022/05/22 12:19:05;;;;;;;17.02;5.88;;;;;;;18.63;53.80;101388.75;5033484;28;20050;-48
2022/05/22 12:22:19;;;;;;;12.38;5.30;;;;;;;18.66;53.64;101376.28;5033541;28;20068;-47